createdAt,value
2023-03-18T00:01:39.123Z,34.08
2023-03-18T00:04:45.032Z,28.20
2023-03-18T00:07:50.040Z,31.57
2023-03-18T00:10:56.084Z,30.82
2023-03-18T00:14:02.023Z,26.45
2023-03-18T00:17:08.110Z,28.32
2023-03-18T00:20:13.632Z,27.95
2023-03-18T00:23:22.200Z,28.27
2023-03-18T00:26:27.159Z,27.98
2023-03-18T00:29:33.348Z,33.10
2023-03-18T00:32:40.934Z,28.42
2023-03-18T00:35:47.300Z,28.70
2023-03-18T00:38:53.426Z,34.90
2023-03-18T00:42:00.091Z,30.20
2023-03-18T00:45:05.833Z,32.58
2023-03-18T00:48:14.209Z,31.02
2023-03-18T00:51:20.944Z,30.52
2023-03-18T00:54:28.153Z,29.55
2023-03-18T00:57:34.204Z,28.62
2023-03-18T01:29:08.383Z,30.97
2023-03-18T01:32:18.142Z,36.10
2023-03-18T01:35:25.334Z,29.60
2023-03-18T01:38:30.960Z,34.18
2023-03-18T01:41:43.455Z,44.55
2023-03-18T01:44:53.585Z,43.13
2023-03-18T01:47:59.962Z,40.17
2023-03-18T01:51:23.146Z,36.60
2023-03-18T01:54:28.078Z,41.48
2023-03-18T01:57:35.197Z,39.88
2023-03-18T02:00:40.168Z,38.95
2023-03-18T02:03:49.404Z,33.05
2023-03-18T02:06:55.941Z,38.60
2023-03-18T02:09:55.438Z,46.30
2023-03-18T02:12:52.779Z,36.85
2023-03-18T02:16:10.279Z,41.28
2023-03-18T02:19:20.655Z,39.95
2023-03-18T02:22:55.444Z,31.62
2023-03-18T02:26:35.177Z,33.50
2023-03-18T02:29:45.522Z,35.17
2023-03-18T02:32:51.087Z,27.27
2023-03-18T02:35:59.000Z,33.63
2023-03-18T02:39:07.805Z,29.60
2023-03-18T02:42:13.730Z,29.90
2023-03-18T02:45:23.958Z,27.48
2023-03-18T02:48:32.956Z,33.00
2023-03-18T02:51:39.245Z,30.90
2023-03-18T02:54:45.102Z,28.60
2023-03-18T02:57:50.551Z,37.38
2023-03-18T03:00:56.287Z,33.88
2023-03-18T03:04:03.550Z,31.55
2023-03-18T03:07:10.291Z,26.93
2023-03-18T03:10:20.781Z,24.30
2023-03-18T03:13:27.461Z,23.02
2023-03-18T03:16:34.985Z,23.15
2023-03-18T03:19:41.452Z,27.48
2023-03-18T03:22:49.079Z,30.65
2023-03-18T03:25:54.236Z,30.35
2023-03-18T03:29:01.039Z,27.52
2023-03-18T03:32:06.986Z,27.10
2023-03-18T03:35:15.669Z,28.92
2023-03-18T03:38:20.882Z,26.20
2023-03-18T03:41:26.714Z,27.45
2023-03-18T03:44:32.440Z,23.45
2023-03-18T03:47:38.951Z,21.80
2023-03-18T03:50:45.538Z,21.30
2023-03-18T03:53:53.616Z,21.10
2023-03-18T03:57:01.485Z,22.17
2023-03-18T04:00:07.181Z,19.92
2023-03-18T04:03:13.302Z,17.23
2023-03-18T04:06:19.697Z,23.40
2023-03-18T04:09:27.478Z,21.02
2023-03-18T04:12:35.108Z,23.32
2023-03-18T04:15:41.466Z,21.48
2023-03-18T04:18:49.647Z,19.30
2023-03-18T04:21:55.291Z,23.12
2023-03-18T04:25:01.382Z,28.55
2023-03-18T04:28:07.806Z,24.98
2023-03-18T04:31:13.669Z,27.20
2023-03-18T04:34:20.838Z,23.95
2023-03-18T04:37:27.850Z,26.02
2023-03-18T04:40:32.769Z,24.87
2023-03-18T04:43:40.500Z,26.25
2023-03-18T04:46:46.622Z,24.37
2023-03-18T04:49:53.012Z,27.17
2023-03-18T04:52:59.502Z,21.40
2023-03-18T04:56:07.058Z,23.62
2023-03-18T04:59:07.812Z,21.73
2023-03-18T05:02:16.282Z,21.87
2023-03-18T05:05:21.978Z,24.72
2023-03-18T05:08:27.386Z,35.98
2023-03-18T05:11:34.042Z,29.02
2023-03-18T05:14:48.607Z,28.42
2023-03-18T05:17:54.852Z,27.13
2023-03-18T05:21:02.251Z,28.83
2023-03-18T05:24:08.162Z,30.90
2023-03-18T05:27:15.224Z,30.05
2023-03-18T05:30:24.027Z,33.67
2023-03-18T05:33:31.348Z,30.27
2023-03-18T05:36:36.770Z,29.60
2023-03-18T05:39:45.067Z,29.27
2023-03-18T05:42:56.152Z,28.77
2023-03-18T05:46:08.380Z,29.65
2023-03-18T05:49:15.725Z,28.38
2023-03-18T05:52:24.491Z,32.78
2023-03-18T05:55:32.013Z,34.55
2023-03-18T05:58:38.546Z,26.77
2023-03-18T06:01:39.337Z,25.77
2023-03-18T06:04:27.368Z,34.03
2023-03-18T06:07:20.265Z,40.17
2023-03-18T06:10:08.167Z,39.08
2023-03-18T06:13:02.929Z,27.60
2023-03-18T06:15:49.805Z,31.33
2023-03-18T06:18:42.701Z,34.83
2023-03-18T06:21:39.822Z,37.80
2023-03-18T06:24:47.890Z,29.27
2023-03-18T06:27:54.611Z,39.25
2023-03-18T06:30:59.691Z,39.03
2023-03-18T06:34:05.656Z,36.53
2023-03-18T06:37:11.150Z,43.15
2023-03-18T06:40:17.237Z,46.25
2023-03-18T06:43:24.177Z,40.55
2023-03-18T06:46:30.446Z,38.60
2023-03-18T06:49:36.692Z,51.83
2023-03-18T06:52:44.580Z,58.00
2023-03-18T06:55:52.582Z,58.52
2023-03-18T06:58:59.813Z,56.90
2023-03-18T07:02:06.855Z,67.70
2023-03-18T07:05:11.405Z,67.37
2023-03-18T07:08:17.678Z,71.72
2023-03-18T07:11:24.180Z,64.37
2023-03-18T07:14:32.887Z,81.00
2023-03-18T07:17:38.433Z,94.67
2023-03-18T07:20:44.194Z,83.62
2023-03-18T07:23:50.105Z,89.85
2023-03-18T07:26:57.148Z,119.15
2023-03-18T07:30:04.611Z,89.45
2023-03-18T07:33:10.493Z,122.58
2023-03-18T07:36:17.446Z,140.15
2023-03-18T07:39:23.309Z,121.10
2023-03-18T07:42:29.611Z,127.65
2023-03-18T07:45:36.025Z,137.52
2023-03-18T07:48:41.640Z,123.20
2023-03-18T07:51:48.349Z,145.45
2023-03-18T07:54:54.500Z,132.85
2023-03-18T07:58:00.749Z,117.00
2023-03-18T08:01:07.476Z,123.78
2023-03-18T08:04:12.699Z,148.75
2023-03-18T08:07:20.103Z,165.85
2023-03-18T08:10:26.771Z,156.75
2023-03-18T08:13:33.370Z,131.27
2023-03-18T08:16:38.061Z,112.28
2023-03-18T08:19:42.841Z,103.95
2023-03-18T08:22:50.067Z,146.95
2023-03-18T08:25:58.115Z,134.18
2023-03-18T08:29:05.158Z,131.20
2023-03-18T08:32:10.732Z,120.80
2023-03-18T08:35:16.646Z,140.25
2023-03-18T08:38:23.053Z,112.68
2023-03-18T08:41:29.363Z,126.40
2023-03-18T08:44:35.939Z,136.55
2023-03-18T08:47:42.328Z,126.45
2023-03-18T08:50:50.525Z,168.70
2023-03-18T08:53:56.234Z,121.85
2023-03-18T08:57:03.580Z,98.87
2023-03-18T09:00:08.426Z,110.45
2023-03-18T09:03:16.020Z,102.22
2023-03-18T09:06:23.136Z,131.15
2023-03-18T09:09:42.669Z,110.92
2023-03-18T09:12:36.150Z,122.15
2023-03-18T09:15:41.486Z,121.67
2023-03-18T09:18:48.923Z,124.50
2023-03-18T09:21:55.167Z,91.95
2023-03-18T09:25:01.877Z,95.22
2023-03-18T09:28:07.695Z,77.95
2023-03-18T09:31:14.184Z,86.97
2023-03-18T09:34:21.228Z,79.47
2023-03-18T09:37:26.864Z,94.22
2023-03-18T09:40:50.219Z,97.33
2023-03-18T09:44:04.099Z,96.50
2023-03-18T09:47:53.926Z,99.25
2023-03-18T09:51:07.521Z,99.00
2023-03-18T09:54:47.096Z,55.88
2023-03-18T09:57:50.882Z,85.80
2023-03-18T10:00:47.736Z,93.37
2023-03-18T10:04:01.716Z,111.40
2023-03-18T10:07:30.777Z,97.85
2023-03-18T10:10:43.151Z,76.60
2023-03-18T10:14:08.954Z,61.70
2023-03-18T10:17:31.464Z,111.77
2023-03-18T10:20:51.857Z,94.13
2023-03-18T10:24:30.106Z,109.32
2023-03-18T10:28:03.773Z,96.22
2023-03-18T10:31:25.692Z,100.55
2023-03-18T10:34:36.262Z,86.90
2023-03-18T10:38:04.793Z,85.07
2023-03-18T10:41:11.158Z,66.90
2023-03-18T10:44:39.611Z,87.42
2023-03-18T10:47:48.019Z,101.02
2023-03-18T10:50:58.328Z,79.00
2023-03-18T10:54:30.228Z,79.47
2023-03-18T10:57:36.558Z,108.67
2023-03-18T11:00:47.033Z,92.57
2023-03-18T11:04:06.052Z,118.67
2023-03-18T11:07:17.496Z,96.20
2023-03-18T11:10:30.287Z,107.35
2023-03-18T11:13:37.392Z,107.30
2023-03-18T11:16:56.093Z,146.75
2023-03-18T11:20:04.448Z,112.15
2023-03-18T11:23:12.523Z,118.65
2023-03-18T11:26:19.192Z,83.25
2023-03-18T11:29:20.743Z,108.52
2023-03-18T11:32:44.524Z,99.72
2023-03-18T11:36:13.636Z,122.53
2023-03-18T11:39:19.816Z,120.25
2023-03-18T11:42:36.254Z,125.87
2023-03-18T11:46:07.113Z,108.42
2023-03-18T11:49:12.882Z,130.43
2023-03-18T11:52:28.741Z,121.87
2023-03-18T11:55:42.373Z,104.75
2023-03-18T11:59:36.459Z,136.47
2023-03-18T12:02:54.782Z,101.27
2023-03-18T12:06:36.440Z,99.07
2023-03-18T12:10:07.482Z,124.20
2023-03-18T12:13:18.790Z,82.17
2023-03-18T12:16:46.371Z,90.10
2023-03-18T12:20:22.068Z,73.70
2023-03-18T12:24:15.064Z,87.62
2023-03-18T12:27:38.865Z,57.88
2023-03-18T12:30:58.305Z,63.83
2023-03-18T12:34:18.928Z,82.08
2023-03-18T12:37:44.332Z,62.38
2023-03-18T12:41:21.111Z,73.20
2023-03-18T12:44:43.535Z,73.92
2023-03-18T12:48:12.274Z,75.97
2023-03-18T12:51:33.299Z,65.10
2023-03-18T12:54:46.190Z,56.63
2023-03-18T12:58:03.014Z,59.00
2023-03-18T13:01:25.399Z,63.48
2023-03-18T13:04:29.440Z,64.03
2023-03-18T13:07:24.244Z,55.23
2023-03-18T13:10:32.015Z,47.40
2023-03-18T13:13:24.699Z,51.23
2023-03-18T13:16:32.632Z,56.00
2023-03-18T13:19:38.749Z,47.53
2023-03-18T13:23:08.823Z,36.83
2023-03-18T13:26:26.031Z,40.50
2023-03-18T13:30:04.969Z,49.60
2023-03-18T13:33:54.449Z,32.35
2023-03-18T13:37:17.823Z,43.68
2023-03-18T13:40:57.448Z,35.13
2023-03-18T13:43:58.418Z,31.90
2023-03-18T13:46:45.074Z,34.40
2023-03-18T13:49:39.748Z,27.93
2023-03-18T13:52:50.302Z,23.42
2023-03-18T13:55:56.788Z,20.97
2023-03-18T13:59:02.198Z,30.10
2023-03-18T14:02:08.105Z,20.80
2023-03-18T14:05:14.670Z,34.27
2023-03-18T14:08:57.782Z,22.98
2023-03-18T14:12:05.972Z,22.75
2023-03-18T14:15:31.069Z,20.10
2023-03-18T14:18:39.464Z,22.67
2023-03-18T14:21:47.421Z,21.95
2023-03-18T14:24:55.081Z,16.77
2023-03-18T14:28:04.210Z,16.15
2023-03-18T14:31:14.187Z,16.73
2023-03-18T14:34:30.828Z,17.92
2023-03-18T14:37:35.925Z,17.65
2023-03-18T14:43:58.095Z,13.03
2023-03-18T14:47:05.889Z,16.97
2023-03-18T14:50:31.089Z,18.50
2023-03-18T14:53:49.434Z,15.58
2023-03-18T14:56:56.251Z,14.13
2023-03-18T15:00:02.225Z,14.70
2023-03-18T15:03:19.203Z,23.02
2023-03-18T15:06:28.181Z,20.45
2023-03-18T15:09:42.054Z,21.05
2023-03-18T15:12:48.233Z,18.48
2023-03-18T15:15:54.262Z,11.40
2023-03-18T15:19:01.974Z,15.45
2023-03-18T15:22:09.735Z,16.52
2023-03-18T15:25:20.217Z,9.63
2023-03-18T15:28:36.492Z,8.15
2023-03-18T15:31:45.150Z,9.00
2023-03-18T15:34:51.600Z,9.65
2023-03-18T15:37:58.656Z,11.88
2023-03-18T15:41:06.864Z,13.18
2023-03-18T15:44:12.562Z,9.43
2023-03-18T15:47:31.169Z,11.53
2023-03-18T15:50:43.496Z,14.55
2023-03-18T15:53:57.486Z,8.95
2023-03-18T15:57:04.368Z,8.95
2023-03-18T16:00:13.707Z,6.55
2023-03-18T16:03:24.301Z,10.98
2023-03-18T16:06:30.167Z,11.63
2023-03-18T16:09:41.399Z,8.80
2023-03-18T16:12:48.208Z,13.40
2023-03-18T16:15:53.471Z,10.72
2023-03-18T16:18:59.582Z,8.75
2023-03-18T16:22:11.094Z,15.98
2023-03-18T16:25:16.671Z,8.93
2023-03-18T16:28:23.283Z,8.58
2023-03-18T16:31:29.421Z,13.10
2023-03-18T16:34:35.120Z,16.17
2023-03-18T16:37:40.627Z,13.85
2023-03-18T16:40:47.606Z,17.60
2023-03-18T16:43:56.242Z,19.52
2023-03-18T16:47:04.850Z,13.90
2023-03-18T16:50:09.800Z,14.55
2023-03-18T16:53:17.497Z,12.37
2023-03-18T16:56:33.010Z,21.82
2023-03-18T16:59:38.301Z,20.88
2023-03-18T17:02:48.911Z,20.27
2023-03-18T17:05:57.633Z,33.48
2023-03-18T17:09:04.419Z,34.15
2023-03-18T17:12:20.957Z,31.42
2023-03-18T17:15:27.659Z,34.13
2023-03-18T17:18:35.857Z,26.70
2023-03-18T17:21:41.433Z,22.00
2023-03-18T17:24:48.014Z,24.40
2023-03-18T17:28:03.748Z,33.42
2023-03-18T17:31:03.478Z,20.75
2023-03-18T17:33:56.876Z,27.13
2023-03-18T17:37:03.660Z,27.70
2023-03-18T17:40:10.444Z,24.20
2023-03-18T17:43:16.008Z,28.70
2023-03-18T17:46:22.768Z,26.02
2023-03-18T17:49:29.682Z,24.60
2023-03-18T17:52:35.418Z,17.07
2023-03-18T17:55:41.453Z,20.77
2023-03-18T17:58:48.332Z,17.27
2023-03-18T18:01:54.300Z,19.92
2023-03-18T18:05:01.023Z,22.45
2023-03-18T18:08:06.766Z,18.50
2023-03-18T18:11:35.953Z,16.90
2023-03-18T18:14:43.186Z,11.50
2023-03-18T18:17:48.182Z,14.63
2023-03-18T18:20:53.488Z,11.65
2023-03-18T18:23:59.756Z,12.35
2023-03-18T18:27:05.719Z,10.08
2023-03-18T18:30:11.225Z,16.60
2023-03-18T18:33:19.744Z,7.33
2023-03-18T18:36:25.670Z,15.10
2023-03-18T18:39:31.180Z,9.20
2023-03-18T18:42:37.232Z,11.65
2023-03-18T18:45:42.911Z,8.70
2023-03-18T18:48:49.643Z,9.33
2023-03-18T18:51:55.525Z,8.90
2023-03-18T18:55:01.559Z,8.48
2023-03-18T18:58:07.045Z,7.08
2023-03-18T19:01:13.553Z,11.08
2023-03-18T19:04:18.965Z,10.32
2023-03-18T19:07:25.137Z,7.53
2023-03-18T19:10:25.849Z,10.23
2023-03-18T19:13:23.974Z,7.97
2023-03-18T19:16:40.486Z,7.87
2023-03-18T19:19:48.912Z,6.92
2023-03-18T19:22:54.932Z,8.90
2023-03-18T19:26:00.635Z,9.55
2023-03-18T19:29:06.178Z,13.13
2023-03-18T19:32:13.270Z,7.45
2023-03-18T19:35:20.005Z,7.50
2023-03-18T19:38:32.277Z,7.12
2023-03-18T19:41:37.772Z,6.78
2023-03-18T19:44:43.791Z,8.23
2023-03-18T19:47:45.587Z,7.87
2023-03-18T19:50:51.534Z,6.80
2023-03-18T19:54:01.235Z,8.33
2023-03-18T19:57:10.734Z,12.95
2023-03-18T20:00:17.718Z,7.72
2023-03-18T20:03:30.026Z,8.63
2023-03-18T20:06:36.637Z,8.90
2023-03-18T20:09:42.878Z,7.20
2023-03-18T20:12:51.555Z,7.03
2023-03-18T20:15:58.377Z,7.78
2023-03-18T20:19:03.894Z,11.88
2023-03-18T20:22:09.471Z,7.55
2023-03-18T20:25:17.459Z,8.65
2023-03-18T20:28:27.958Z,8.10
2023-03-18T20:31:33.624Z,16.73
2023-03-18T20:34:41.680Z,6.67
2023-03-18T20:37:47.870Z,9.35
2023-03-18T20:40:56.262Z,9.45
2023-03-18T20:44:02.979Z,6.75
2023-03-18T20:47:08.681Z,7.65
2023-03-18T20:50:15.638Z,7.80
2023-03-18T20:53:34.371Z,9.78
2023-03-18T20:56:41.528Z,8.70
2023-03-18T20:59:49.264Z,8.13
2023-03-18T21:02:55.927Z,7.55
2023-03-18T21:06:03.900Z,7.80
2023-03-18T21:09:11.746Z,8.20
2023-03-18T21:12:17.979Z,8.75
2023-03-18T21:15:40.820Z,8.03
2023-03-18T21:18:48.981Z,8.18
2023-03-18T21:21:55.029Z,7.75
2023-03-18T21:25:00.813Z,8.05
2023-03-18T21:28:07.123Z,8.70
2023-03-18T21:31:13.661Z,12.82
2023-03-18T21:34:19.798Z,10.50
2023-03-18T21:37:30.752Z,8.95
2023-03-18T21:40:37.361Z,7.62
2023-03-18T21:43:52.047Z,8.90
2023-03-18T21:46:58.539Z,7.60
2023-03-18T21:50:04.618Z,10.15
2023-03-18T21:53:10.500Z,7.65
2023-03-18T21:56:16.143Z,7.45
2023-03-18T21:59:21.889Z,6.95
2023-03-18T22:02:47.225Z,10.08
2023-03-18T22:05:55.743Z,9.80
2023-03-18T22:09:03.628Z,5.87
2023-03-18T22:12:10.691Z,7.05
2023-03-18T22:15:16.130Z,8.63
2023-03-18T22:18:21.193Z,9.18
2023-03-18T22:21:34.263Z,10.63
2023-03-18T22:24:41.587Z,6.75
2023-03-18T22:27:46.557Z,8.85
2023-03-18T22:30:53.074Z,6.08
2023-03-18T22:33:58.755Z,6.55
2023-03-18T22:37:05.693Z,7.15
2023-03-18T22:40:11.654Z,8.25
2023-03-18T22:43:17.554Z,10.72
2023-03-18T22:46:23.410Z,6.90
2023-03-18T22:49:29.261Z,9.65
2023-03-18T22:52:45.787Z,6.22
2023-03-18T22:55:52.461Z,8.30
2023-03-18T22:58:58.123Z,7.85
2023-03-18T23:02:04.080Z,4.97
2023-03-18T23:05:10.565Z,8.18
2023-03-18T23:08:16.944Z,8.13
2023-03-18T23:11:23.905Z,8.53
2023-03-18T23:14:23.643Z,6.60
2023-03-18T23:17:31.955Z,7.42
2023-03-18T23:20:37.761Z,7.97
2023-03-18T23:23:43.881Z,7.58
2023-03-18T23:26:49.605Z,7.65
2023-03-18T23:29:56.582Z,7.42
2023-03-18T23:33:02.666Z,4.85
2023-03-18T23:36:10.073Z,5.78
2023-03-18T23:39:16.395Z,8.50
2023-03-18T23:42:22.285Z,7.08
2023-03-18T23:45:30.989Z,7.10
2023-03-18T23:48:38.550Z,8.53
2023-03-18T23:51:44.840Z,7.35
2023-03-18T23:54:50.927Z,5.60
2023-03-18T23:57:56.813Z,7.37
